Lozano, TX (78568)

10:18 AM CST on November 23, 2014 (GMT -0600)
RAWS LAGUNA ATASCOSA TX US | Change Station
CLOSE
Current Station
Personal Weather Station
Location: Lozano, TX
Elevation: 24 ft
Nearby Weather Stations

Elev 24 ft 26.23 °N, 97.35 °W | Updated 56 minutes ago

Partly Cloudy
Partly Cloudy
67 °F
Feels Like 67 °F
N
4
Wind Variable Wind from WSW
Gusts 7.0 mph

Today
High -- | Low -- °F
--% Chance of Precip.
Yesterday
High -- | Low -- °F
Precip. -- in
6:54 AM 5:38 PM
New Moon, 2% visible
Pressure 29.80 in
Visibility 4.0 miles
Clouds
Dew Point 66 °F
Humidity 98%
Rainfall 0.87 in
Snow Depth Not available.
UV Not available.
Pollen 3.70 out of 12
Air Quality Not available.
Flu Activity Not available.
METAR KPIL 231553Z AUTO 20005KT 4SM BR 19/19 A2980 RMK AO2 SLP090 T01890189 $

More Conditions Fewer Conditions

Pressure 29.80 in
Visibility 4.0 miles
Clouds
Dew Point 66 °F
Humidity 98%
Rainfall 0.87 in
Snow Depth Not available.
UV Not available.
Pollen 3.70 out of 12
Air Quality Not available.
Flu Activity Not available.
METAR KPIL 231553Z AUTO 20005KT 4SM BR 19/19 A2980 RMK AO2 SLP090 T01890189 $

More Conditions Fewer Conditions

Nowcast | as of 9:27 am CST on November 23, 2014

Through 1030 am...areas of dense fog will continue to affect portions of Cameron and Willacy counties...with visibilities reduced to a quarter of a mile in some locations. Motorists are urged to drive with caution when encountering areas of reduced visibility.

×

10-Day Weather Forecast

Almanac

Astronomy

Nov. 23, 2014 Rise Set
Actual Time
Civil Twilight
Nautical Twilight
Astronomical Twilight
Moon
Length of Visible Light
Length of Day
Tomorrow will be .
, % of the Moon is Illuminated

Today's Extremes

State Highs State Lows

Community

WunderPhotos

Upload Photos

1,773,089 photos uploaded!

WunderBlogs® & News

Nearby

Air Quality

  Air Quality AQ Index Pollutant
Not available.

Snow Depth

Station Depth Elevation

Earthquake Activity

City Distance Mag. Time & Date
Minimum magnitude displayed is 2.5.

Coastal Water Temperatures

Place Temperature

Nearby Weather Stations